Labuan Airport
WBKL : now visible

Airfield :











YOU CAN JOIN US ON...

 
LOGIN :

Register | Disclaimer

   EN    FR    IT 

 









Legend :    VFR   Marginal VFR   IFR   Intensive IFR   Very Intensive IFR
Visi :
Ceiling :
>= 8 km
>= 3000ft
5 to 8 km
1000 to 3000 ft
1500m to 5 km
500 to 1000 ft
800 to 1500m
200 to 500 ft
< 800m
< 200 ft
Symbols :   Thunderstorms  Fog  Heavy snow  Heavy precipitations  Wind > 20 kt






- Airport Elevation : 101 ft
- IATA code : LBU


WBKL - Labuan

CURRENT METAR :
  • 211500Z 00000KT 9999 FEW017CB SCT035 28/26 Q1009

EXPIRED METARs :
  • 211400Z 00000KT 9999 FEW017CB 28/26 Q1009
  • 211300Z 00000KT 9999 FEW015 FEW017CB 28/26 Q1008
  • 211200Z 00000KT 9999 FEW015 29/26 Q1007
  • 211100Z 00000KT 9999 FEW015 29/26 Q1006

TAF TAF WBKL
Valid from the 21 at 12:00 until the 22 at 12:00 UTC


211100Z 2112/2212 VRB03KT 9999 FEW014
TEMPO 2120/2123 5000 TSRA FEW010 FEW016CB SCT030
WBFC FIR / Asia



MET'MAP, your aeronautical weather chart ! - Copyright ORBIFLY December 2007 - Disclaimer

ORBIFLY MET'MAP TEAM :

Programming & Development : Alexandra Zaïnal
Original concept : Baudouin d'Aumeries
Technical & hardware support : Manuel Goepfert
Assistance : Marc-Olivier Méhu




SOURCES & CREDITS :

   NOAA       Earth
Advisory